createdAt,value
2022-08-21T00:01:17.413Z,19.64
2022-08-21T00:03:49.817Z,19.63
2022-08-21T00:06:19.830Z,19.64
2022-08-21T00:08:52.767Z,19.63
2022-08-21T00:12:02.270Z,19.60
2022-08-21T00:14:36.640Z,19.60
2022-08-21T00:17:08.435Z,19.59
2022-08-21T00:19:39.025Z,19.61
2022-08-21T00:22:08.976Z,19.65
2022-08-21T00:24:39.783Z,19.67
2022-08-21T00:27:11.388Z,19.64
2022-08-21T00:34:00.906Z,19.66
2022-08-21T00:36:34.179Z,19.64
2022-08-21T00:39:07.883Z,19.61
2022-08-21T00:41:41.623Z,19.59
2022-08-21T00:44:14.768Z,19.57
2022-08-21T00:46:48.019Z,19.57
2022-08-21T00:49:20.638Z,19.53
2022-08-21T00:51:57.019Z,19.49
2022-08-21T00:54:30.055Z,19.44
2022-08-21T00:57:08.919Z,19.44
2022-08-21T00:59:41.019Z,19.47
2022-08-21T01:02:12.593Z,19.53
2022-08-21T01:04:45.329Z,19.58
2022-08-21T01:07:17.763Z,19.61
2022-08-21T01:09:50.311Z,19.63
2022-08-21T01:12:22.695Z,19.65
2022-08-21T01:14:53.241Z,19.67
2022-08-21T01:17:24.331Z,19.69
2022-08-21T01:19:59.465Z,19.70
2022-08-21T01:22:29.724Z,19.72
2022-08-21T01:25:02.071Z,19.71
2022-08-21T01:27:34.363Z,19.71
2022-08-21T01:30:12.463Z,19.70
2022-08-21T01:32:41.731Z,19.70
2022-08-21T01:35:15.967Z,19.69
2022-08-21T01:37:46.610Z,19.71
2022-08-21T01:40:18.605Z,19.69
2022-08-21T01:42:48.798Z,19.65
2022-08-21T01:45:19.422Z,19.60
2022-08-21T01:47:50.512Z,19.57
2022-08-21T01:50:21.947Z,19.61
2022-08-21T01:52:53.332Z,19.66
2022-08-21T01:55:27.055Z,19.74
2022-08-21T01:57:57.934Z,19.73
2022-08-21T02:00:30.201Z,19.72
2022-08-21T02:03:01.422Z,19.70
2022-08-21T02:05:31.655Z,19.70
2022-08-21T02:08:08.563Z,19.68
2022-08-21T02:10:39.202Z,19.69
2022-08-21T02:13:15.448Z,19.72
2022-08-21T02:15:46.735Z,19.74
2022-08-21T02:18:17.710Z,19.74
2022-08-21T02:20:56.085Z,19.74
2022-08-21T02:23:46.504Z,19.73
2022-08-21T02:26:19.667Z,19.75
2022-08-21T02:33:42.482Z,19.69
2022-08-21T02:36:16.308Z,19.61
2022-08-21T02:38:48.652Z,19.52
2022-08-21T02:41:23.661Z,19.50
2022-08-21T02:43:52.900Z,19.50
2022-08-21T02:46:25.276Z,19.51
2022-08-21T02:48:59.599Z,19.54
2022-08-21T02:52:04.411Z,19.57
2022-08-21T02:55:25.097Z,19.56
2022-08-21T02:57:55.920Z,19.56
2022-08-21T03:00:48.443Z,19.59
2022-08-21T03:03:18.673Z,19.59
2022-08-21T03:05:51.101Z,19.59
2022-08-21T03:08:22.811Z,19.61
2022-08-21T03:10:56.316Z,19.67
2022-08-21T03:13:28.664Z,19.73
2022-08-21T03:15:57.723Z,19.78
2022-08-21T03:18:29.312Z,19.85
2022-08-21T03:20:58.620Z,19.92
2022-08-21T03:23:32.676Z,19.95
2022-08-21T03:26:45.818Z,19.95
2022-08-21T03:30:09.889Z,19.96
2022-08-21T03:33:03.270Z,20.04
2022-08-21T03:35:47.113Z,20.04
2022-08-21T03:38:22.272Z,20.06
2022-08-21T03:40:54.041Z,20.10
2022-08-21T03:43:26.576Z,20.11
2022-08-21T03:46:08.983Z,20.11
2022-08-21T03:48:41.766Z,20.11
2022-08-21T03:51:17.153Z,20.11
2022-08-21T03:53:48.640Z,20.13
2022-08-21T03:56:19.268Z,20.18
2022-08-21T03:58:50.747Z,20.21
2022-08-21T04:01:24.332Z,20.23
2022-08-21T04:03:57.102Z,20.24
2022-08-21T04:06:35.790Z,20.28
2022-08-21T04:10:07.948Z,20.35
2022-08-21T04:12:39.129Z,20.35
2022-08-21T04:15:11.698Z,20.31
2022-08-21T04:17:43.845Z,20.26
2022-08-21T04:20:14.961Z,20.25
2022-08-21T04:22:52.030Z,20.25
2022-08-21T04:25:25.036Z,20.28
2022-08-21T04:27:56.298Z,20.34
2022-08-21T04:30:28.986Z,20.41
2022-08-21T04:33:00.878Z,20.48
2022-08-21T04:35:33.214Z,20.56
2022-08-21T04:38:03.198Z,20.64
2022-08-21T04:40:32.742Z,20.68
2022-08-21T04:43:10.131Z,20.79
2022-08-21T04:45:44.261Z,20.89
2022-08-21T04:48:16.413Z,20.96
2022-08-21T04:50:52.683Z,21.05
2022-08-21T04:53:35.524Z,21.12
2022-08-21T04:56:13.706Z,21.19
2022-08-21T04:58:44.749Z,21.23
2022-08-21T05:01:21.499Z,21.32
2022-08-21T05:03:58.552Z,21.43
2022-08-21T05:06:32.740Z,21.59
2022-08-21T05:09:04.592Z,21.76
2022-08-21T05:11:38.528Z,21.88
2022-08-21T05:14:08.201Z,22.00
2022-08-21T05:16:38.160Z,22.16
2022-08-21T05:19:36.315Z,22.33
2022-08-21T05:22:05.231Z,22.45
2022-08-21T05:24:35.521Z,22.56
2022-08-21T05:27:05.672Z,22.66
2022-08-21T05:29:37.400Z,22.76
2022-08-21T05:32:13.078Z,22.86
2022-08-21T05:34:43.339Z,22.96
2022-08-21T05:37:14.917Z,23.07
2022-08-21T05:40:04.803Z,23.19
2022-08-21T05:42:38.904Z,23.30
2022-08-21T05:45:13.970Z,23.32
2022-08-21T05:47:43.626Z,23.37
2022-08-21T05:50:13.710Z,23.52
2022-08-21T05:52:43.017Z,23.71
2022-08-21T05:55:15.415Z,23.81
2022-08-21T05:57:57.548Z,23.92
2022-08-21T06:03:27.215Z,24.13
2022-08-21T06:06:27.972Z,24.25
2022-08-21T06:09:21.006Z,24.37
2022-08-21T06:11:53.030Z,24.52
2022-08-21T06:14:28.861Z,24.63
2022-08-21T06:17:21.436Z,24.60
2022-08-21T06:20:01.240Z,24.70
2022-08-21T06:22:44.450Z,24.79
2022-08-21T06:25:38.939Z,24.80
2022-08-21T06:28:12.848Z,24.67
2022-08-21T06:31:18.671Z,24.71
2022-08-21T06:33:54.650Z,24.91
2022-08-21T06:36:30.097Z,25.07
2022-08-21T06:39:06.689Z,25.27
2022-08-21T06:41:57.371Z,25.52
2022-08-21T06:44:31.907Z,25.61
2022-08-21T06:47:04.210Z,25.68
2022-08-21T06:49:33.815Z,25.83
2022-08-21T06:52:05.561Z,25.94
2022-08-21T06:54:35.821Z,25.89
2022-08-21T06:57:06.134Z,25.72
2022-08-21T06:59:59.532Z,25.37
2022-08-21T07:02:56.693Z,25.16
2022-08-21T07:05:30.317Z,25.08
2022-08-21T07:07:59.784Z,25.11
2022-08-21T07:10:30.186Z,25.16
2022-08-21T07:16:09.614Z,26.23
2022-08-21T07:18:39.971Z,27.95
2022-08-21T07:21:10.815Z,29.34
2022-08-21T07:23:49.379Z,30.58
2022-08-21T07:26:22.131Z,31.64
2022-08-21T07:33:01.406Z,32.85
2022-08-21T07:35:34.936Z,33.53
2022-08-21T07:38:05.835Z,33.01
2022-08-21T07:40:37.622Z,32.45
2022-08-21T07:43:08.527Z,33.14
2022-08-21T07:45:37.853Z,34.17
2022-08-21T07:48:06.678Z,34.82
2022-08-21T07:50:36.028Z,34.95
2022-08-21T07:53:09.095Z,34.55
2022-08-21T07:55:38.121Z,33.38
2022-08-21T07:58:08.412Z,32.46
2022-08-21T08:00:39.419Z,32.00
2022-08-21T08:03:11.121Z,31.91
2022-08-21T08:05:40.774Z,32.36
2022-08-21T08:08:10.851Z,32.24
2022-08-21T08:10:40.757Z,31.71
2022-08-21T08:13:11.930Z,31.40
2022-08-21T08:15:42.209Z,31.56
2022-08-21T08:18:16.689Z,32.04
2022-08-21T08:20:46.598Z,32.17
2022-08-21T08:23:20.975Z,31.70
2022-08-21T08:25:54.956Z,31.16
2022-08-21T08:28:25.386Z,30.78
2022-08-21T08:30:57.494Z,30.65
2022-08-21T08:33:27.532Z,30.58
2022-08-21T08:36:23.766Z,30.56
2022-08-21T08:39:31.640Z,30.95
2022-08-21T08:42:36.079Z,31.55
2022-08-21T08:45:23.507Z,32.09
2022-08-21T08:48:14.482Z,32.27
2022-08-21T08:51:00.168Z,32.07
2022-08-21T08:53:50.031Z,31.69
2022-08-21T08:56:23.720Z,32.06
2022-08-21T08:58:54.739Z,32.84
2022-08-21T09:01:24.954Z,33.67
2022-08-21T09:03:59.246Z,34.02
2022-08-21T09:06:44.531Z,34.82
2022-08-21T09:09:41.370Z,34.93
2022-08-21T09:12:33.316Z,35.39
2022-08-21T09:15:19.072Z,36.50
2022-08-21T09:17:58.726Z,38.06
2022-08-21T09:20:34.100Z,39.14
2022-08-21T09:23:26.771Z,40.02
2022-08-21T09:26:09.457Z,41.19
2022-08-21T09:28:42.498Z,41.88
2022-08-21T09:31:36.341Z,42.51
2022-08-21T09:34:11.697Z,42.85
2022-08-21T09:36:44.586Z,42.93
2022-08-21T09:39:26.910Z,43.09
2022-08-21T09:42:04.072Z,43.37
2022-08-21T09:44:37.444Z,43.38
2022-08-21T09:47:07.027Z,42.49
2022-08-21T09:49:39.644Z,42.00
2022-08-21T09:52:26.464Z,41.27
2022-08-21T09:54:58.809Z,39.65
2022-08-21T09:57:46.686Z,38.62
2022-08-21T10:00:27.218Z,37.79
2022-08-21T10:02:56.106Z,37.02
2022-08-21T10:05:30.322Z,36.33
2022-08-21T10:08:03.126Z,35.85
2022-08-21T10:10:38.008Z,35.52
2022-08-21T10:13:23.556Z,35.48
2022-08-21T10:16:17.835Z,35.69
2022-08-21T10:19:22.017Z,35.84
2022-08-21T10:22:07.142Z,35.52
2022-08-21T10:24:57.498Z,34.74
2022-08-21T10:27:45.031Z,34.09
2022-08-21T10:31:04.291Z,33.79
2022-08-21T10:34:11.142Z,33.66
2022-08-21T10:37:10.557Z,34.17
2022-08-21T10:39:52.944Z,33.84
2022-08-21T10:42:27.454Z,33.61
2022-08-21T10:45:45.178Z,33.14
2022-08-21T10:48:33.482Z,32.72
2022-08-21T10:51:20.922Z,32.51
2022-08-21T10:54:20.226Z,32.23
2022-08-21T10:57:01.990Z,31.86
2022-08-21T11:00:12.712Z,31.59
2022-08-21T11:03:17.708Z,31.41
2022-08-21T11:05:53.499Z,31.20
2022-08-21T11:08:36.136Z,30.89
2022-08-21T11:11:08.776Z,30.53
2022-08-21T11:13:49.699Z,30.38
2022-08-21T11:16:39.289Z,30.12
2022-08-21T11:19:35.371Z,29.95
2022-08-21T11:22:30.881Z,29.85
2022-08-21T11:25:15.325Z,29.83
2022-08-21T11:27:57.527Z,29.79
2022-08-21T11:31:01.284Z,29.75
2022-08-21T11:34:01.948Z,29.89
2022-08-21T11:36:48.946Z,30.07
2022-08-21T11:39:32.191Z,30.20
2022-08-21T11:42:31.558Z,30.31
2022-08-21T11:45:21.089Z,30.43
2022-08-21T11:48:09.128Z,30.61
2022-08-21T11:50:41.437Z,30.77
2022-08-21T11:53:24.761Z,30.82
2022-08-21T11:56:15.942Z,30.82
2022-08-21T11:58:51.039Z,30.64
2022-08-21T12:01:25.213Z,30.52
2022-08-21T12:04:00.055Z,30.43
2022-08-21T12:06:37.271Z,30.43
2022-08-21T12:09:35.900Z,30.71
2022-08-21T12:12:06.247Z,31.21
2022-08-21T12:14:52.717Z,31.68
2022-08-21T12:17:25.645Z,32.40
2022-08-21T12:20:02.034Z,32.57
2022-08-21T12:22:43.859Z,32.88
2022-08-21T12:25:21.777Z,33.09
2022-08-21T12:28:09.316Z,33.47
2022-08-21T12:31:29.624Z,34.10
2022-08-21T12:34:04.038Z,34.73
2022-08-21T12:36:45.288Z,34.97
2022-08-21T12:39:21.023Z,34.95
2022-08-21T12:42:02.451Z,34.82
2022-08-21T12:44:42.631Z,34.78
2022-08-21T12:47:46.697Z,34.60
2022-08-21T12:50:38.849Z,34.29
2022-08-21T12:53:28.230Z,33.97
2022-08-21T12:56:05.085Z,33.67
2022-08-21T12:58:35.018Z,33.35
2022-08-21T13:01:14.230Z,32.94
2022-08-21T13:03:46.204Z,32.35
2022-08-21T13:06:18.548Z,31.91
2022-08-21T13:08:52.091Z,31.60
2022-08-21T13:11:33.643Z,31.34
2022-08-21T13:14:06.030Z,31.17
2022-08-21T13:16:36.278Z,31.07
2022-08-21T13:19:09.603Z,30.98
2022-08-21T13:21:43.750Z,30.77
2022-08-21T13:24:42.930Z,30.60
2022-08-21T13:27:22.306Z,30.43
2022-08-21T13:30:16.893Z,30.48
2022-08-21T13:32:50.057Z,30.48
2022-08-21T13:35:50.962Z,30.39
2022-08-21T13:38:28.300Z,30.27
2022-08-21T13:41:11.679Z,30.29
2022-08-21T13:43:49.929Z,30.27
2022-08-21T13:46:22.809Z,30.14
2022-08-21T13:48:54.796Z,29.98
2022-08-21T13:51:24.335Z,29.67
2022-08-21T13:53:54.649Z,29.38
2022-08-21T13:56:31.282Z,29.17
2022-08-21T13:59:05.287Z,28.96
2022-08-21T14:01:37.918Z,28.81
2022-08-21T14:04:31.211Z,28.65
2022-08-21T14:07:02.591Z,28.48
2022-08-21T14:09:44.269Z,28.35
2022-08-21T14:12:25.742Z,28.17
2022-08-21T14:15:06.297Z,28.03
2022-08-21T14:17:39.408Z,27.88
2022-08-21T14:20:11.945Z,27.76
2022-08-21T14:22:48.418Z,27.63
2022-08-21T14:25:44.767Z,27.52
2022-08-21T14:28:33.331Z,27.39
2022-08-21T14:31:21.797Z,27.28
2022-08-21T14:33:54.424Z,27.22
2022-08-21T14:36:23.740Z,27.17
2022-08-21T14:38:54.272Z,27.08
2022-08-21T14:41:28.902Z,27.05
2022-08-21T14:44:08.161Z,26.99
2022-08-21T14:46:55.190Z,26.90
2022-08-21T14:49:30.872Z,26.81
2022-08-21T14:52:00.190Z,26.78
2022-08-21T14:54:32.656Z,26.75
2022-08-21T14:57:11.802Z,26.73
2022-08-21T14:59:44.059Z,26.71
2022-08-21T15:02:13.269Z,26.67
2022-08-21T15:04:44.336Z,26.61
2022-08-21T15:07:13.968Z,26.55
2022-08-21T15:09:43.138Z,26.50
2022-08-21T15:12:14.640Z,26.48
2022-08-21T15:14:44.407Z,26.46
2022-08-21T15:17:16.061Z,26.40
2022-08-21T15:19:46.641Z,26.24
2022-08-21T15:22:19.166Z,26.09
2022-08-21T15:24:58.543Z,25.96
2022-08-21T15:27:29.162Z,25.69
2022-08-21T15:29:58.610Z,25.41
2022-08-21T15:32:32.058Z,25.16
2022-08-21T15:35:03.003Z,24.92
2022-08-21T15:37:33.803Z,24.73
2022-08-21T15:40:03.299Z,24.56
2022-08-21T15:42:33.776Z,24.47
2022-08-21T15:45:09.328Z,24.34
2022-08-21T15:47:39.941Z,24.20
2022-08-21T15:50:12.328Z,24.11
2022-08-21T15:52:41.650Z,24.06
2022-08-21T15:55:11.932Z,24.06
2022-08-21T15:57:56.825Z,24.05
2022-08-21T16:00:29.388Z,24.01
2022-08-21T16:03:04.504Z,24.01
2022-08-21T16:05:36.931Z,23.99
2022-08-21T16:08:05.849Z,23.91
2022-08-21T16:10:37.011Z,23.83
2022-08-21T16:13:13.294Z,23.81
2022-08-21T16:15:43.456Z,23.77
2022-08-21T16:18:13.713Z,23.77
2022-08-21T16:20:44.602Z,23.77
2022-08-21T16:23:16.376Z,23.75
2022-08-21T16:25:46.699Z,23.73
2022-08-21T16:28:19.126Z,23.69
2022-08-21T16:30:53.219Z,23.63
2022-08-21T16:33:45.186Z,23.52
2022-08-21T16:36:14.366Z,23.45
2022-08-21T16:38:45.236Z,23.47
2022-08-21T16:41:20.192Z,23.46
2022-08-21T16:43:51.313Z,23.40
2022-08-21T16:46:22.614Z,23.40
2022-08-21T16:48:52.492Z,23.30
2022-08-21T16:51:21.601Z,23.16
2022-08-21T16:53:52.314Z,23.08
2022-08-21T16:56:21.204Z,23.04
2022-08-21T16:58:52.110Z,22.95
2022-08-21T17:01:28.382Z,22.94
2022-08-21T17:03:58.979Z,22.95
2022-08-21T17:06:31.059Z,22.92
2022-08-21T17:09:01.979Z,22.87
2022-08-21T17:11:45.613Z,22.83
2022-08-21T17:14:24.301Z,22.74
2022-08-21T17:16:56.228Z,22.69
2022-08-21T17:19:25.324Z,22.65
2022-08-21T17:21:54.503Z,22.65
2022-08-21T17:24:23.543Z,22.63
2022-08-21T17:26:56.811Z,22.59
2022-08-21T17:29:31.405Z,22.53
2022-08-21T17:32:02.563Z,22.53
2022-08-21T17:34:33.550Z,22.53
2022-08-21T17:37:02.786Z,22.46
2022-08-21T17:39:33.640Z,22.38
2022-08-21T17:42:10.347Z,22.31
2022-08-21T17:44:44.469Z,22.25
2022-08-21T17:47:15.071Z,22.26
2022-08-21T17:49:44.619Z,22.29
2022-08-21T17:52:15.270Z,22.31
2022-08-21T17:54:44.520Z,22.29
2022-08-21T17:57:21.575Z,22.25
2022-08-21T17:59:58.190Z,22.22
2022-08-21T18:02:32.320Z,22.17
2022-08-21T18:05:03.533Z,22.07
2022-08-21T18:07:33.065Z,22.01
2022-08-21T18:10:09.050Z,21.95
2022-08-21T18:12:43.018Z,21.92
2022-08-21T18:15:16.203Z,21.94
2022-08-21T18:17:48.795Z,21.89
2022-08-21T18:20:21.020Z,21.87
2022-08-21T18:22:50.743Z,21.92
2022-08-21T18:25:21.462Z,21.93
2022-08-21T18:27:51.720Z,21.91
2022-08-21T18:34:55.510Z,21.92
2022-08-21T18:37:26.633Z,21.88
2022-08-21T18:39:55.825Z,21.83
2022-08-21T18:42:28.592Z,21.86
2022-08-21T18:45:05.041Z,21.88
2022-08-21T18:47:41.827Z,21.89
2022-08-21T18:50:13.912Z,21.88
2022-08-21T18:52:52.506Z,21.87
2022-08-21T18:55:24.881Z,21.83
2022-08-21T18:57:59.515Z,21.78
2022-08-21T19:00:37.734Z,21.77
2022-08-21T19:03:15.801Z,21.81
2022-08-21T19:05:54.579Z,21.83
2022-08-21T19:08:25.998Z,21.81
2022-08-21T19:11:01.934Z,21.77
2022-08-21T19:13:35.077Z,21.72
2022-08-21T19:16:09.592Z,21.64
2022-08-21T19:18:42.455Z,21.60
2022-08-21T19:21:13.131Z,21.61
2022-08-21T19:23:44.456Z,21.62
2022-08-21T19:26:17.446Z,21.65
2022-08-21T19:28:54.872Z,21.67
2022-08-21T19:31:36.414Z,21.71
2022-08-21T19:34:26.273Z,21.68
2022-08-21T19:37:00.240Z,21.61
2022-08-21T19:39:32.836Z,21.57
2022-08-21T19:42:04.137Z,21.51
2022-08-21T19:44:34.544Z,21.50
2022-08-21T19:47:07.437Z,21.51
2022-08-21T19:49:44.894Z,21.47
2022-08-21T19:52:16.456Z,21.43
2022-08-21T19:54:49.418Z,21.40
2022-08-21T19:57:20.135Z,21.36
2022-08-21T19:59:51.253Z,21.30
2022-08-21T20:02:21.101Z,21.24
2022-08-21T20:04:57.929Z,21.23
2022-08-21T20:07:36.173Z,21.21
2022-08-21T20:10:06.924Z,21.19
2022-08-21T20:12:37.680Z,21.18
2022-08-21T20:15:09.515Z,21.18
2022-08-21T20:17:43.003Z,21.19
2022-08-21T20:20:16.073Z,21.15
2022-08-21T20:22:47.619Z,21.08
2022-08-21T20:25:22.312Z,21.06
2022-08-21T20:27:54.511Z,21.07
2022-08-21T20:30:23.676Z,21.05
2022-08-21T20:32:55.341Z,20.95
2022-08-21T20:35:27.646Z,20.87
2022-08-21T20:37:57.963Z,20.85
2022-08-21T20:40:32.913Z,20.85
2022-08-21T20:43:06.046Z,20.85
2022-08-21T20:45:38.731Z,20.81
2022-08-21T20:48:23.557Z,20.77
2022-08-21T20:51:00.868Z,20.75
2022-08-21T20:53:43.494Z,20.74
2022-08-21T20:56:17.838Z,20.73
2022-08-21T20:59:00.284Z,20.70
2022-08-21T21:01:33.871Z,20.69
2022-08-21T21:04:19.710Z,20.67
2022-08-21T21:06:58.378Z,20.68
2022-08-21T21:09:41.132Z,20.61
2022-08-21T21:12:28.022Z,20.61
2022-08-21T21:15:15.590Z,20.59
2022-08-21T21:18:41.405Z,20.56
2022-08-21T21:21:20.185Z,20.50
2022-08-21T21:24:10.789Z,20.40
2022-08-21T21:26:49.893Z,20.34
2022-08-21T21:29:30.267Z,20.33
2022-08-21T21:32:01.029Z,20.33
2022-08-21T21:34:33.855Z,20.33
2022-08-21T21:37:30.621Z,20.30
2022-08-21T21:40:21.118Z,20.29
2022-08-21T21:43:03.845Z,20.25
2022-08-21T21:45:43.013Z,20.24
2022-08-21T21:51:27.861Z,20.25
2022-08-21T21:54:18.808Z,20.21
2022-08-21T21:57:17.764Z,20.22
2022-08-21T22:00:14.236Z,20.19
2022-08-21T22:03:08.165Z,20.18
2022-08-21T22:06:04.915Z,20.12
2022-08-21T22:08:51.966Z,20.10
2022-08-21T22:11:32.442Z,20.08
2022-08-21T22:14:22.684Z,20.08
2022-08-21T22:16:54.267Z,20.14
2022-08-21T22:19:34.147Z,20.14
2022-08-21T22:22:18.236Z,20.13
2022-08-21T22:24:50.908Z,20.08
2022-08-21T22:27:33.226Z,20.08
2022-08-21T22:30:54.115Z,20.08
2022-08-21T22:33:28.888Z,20.02
2022-08-21T22:36:00.774Z,19.99
2022-08-21T22:38:34.202Z,19.91
2022-08-21T22:41:27.936Z,19.86
2022-08-21T22:47:06.032Z,19.77
2022-08-21T22:49:47.579Z,19.69
2022-08-21T22:52:30.918Z,19.64
2022-08-21T22:55:29.648Z,19.67
2022-08-21T22:58:38.314Z,19.69
2022-08-21T23:01:33.857Z,19.69
2022-08-21T23:04:23.671Z,19.69
2022-08-21T23:07:06.105Z,19.67
2022-08-21T23:09:47.225Z,19.67
2022-08-21T23:12:34.631Z,19.64
2022-08-21T23:15:10.853Z,19.57
2022-08-21T23:18:01.419Z,19.47
2022-08-21T23:20:58.059Z,19.41
2022-08-21T23:23:34.901Z,19.32
2022-08-21T23:26:52.162Z,19.25
2022-08-21T23:30:04.662Z,19.14
2022-08-21T23:32:57.090Z,19.09
2022-08-21T23:36:08.168Z,19.06
2022-08-21T23:38:53.189Z,19.01
2022-08-21T23:42:00.814Z,19.01
2022-08-21T23:45:14.190Z,19.01
2022-08-21T23:48:04.490Z,19.02
2022-08-21T23:50:44.487Z,19.02
2022-08-21T23:59:18.123Z,18.99
